Frederick, Oklahoma
Current Conditions -  °F | °C
As of 10:27 AM on Saturday 20 Dec 2014 (Local Time) from KFDR Reporting Station
Haze Haze  
Wind Chill: 37°   Ceiling: 2500
Heat Index: 43°   Visibility: 2.5mi
Dew Point: 41°   Wind: 10mph
Humidity: 93%   Direction: 140°SE
Pressure: 30.2"   Gusts: NA
Location:  34.39°N, 99.02°W
Report Text: KFDR 201627Z AUTO 14009KT 2 1/2SM BR SCT006 OVC025 06/05 A3020 RMK AO2 T00610050
Loading
Personal Weather Stations






























Interactive Weather Map New forecast layout! Learn more

10-Day Weather Forecast

Advertisements
Track Severe Weather on mobile